Time;durP1;ratioP1;P1;durP2;ratioP2;P2;SDS_P1;SDS_P2;PMS_P1;PMS_P2;Temp;Humidity;BMP_temperature;BMP_pressure;BME280_temperature;BME280_humidity;BME280_pressure;Samples;Min_cycle;Max_cycle;Signal;HPM_P1;HPM_P2
2023/09/06 00:02:16;;;;;;;6.78;3.97;;;;;;;20.07;77.74;101709.72;5112060;28;20416;-71
2023/09/06 00:04:41;;;;;;;6.93;4.10;;;;;;;20.16;77.29;101708.88;5111274;28;20020;-72
2023/09/06 00:07:07;;;;;;;4.80;3.88;;;;;;;20.11;77.71;101709.28;5111332;28;20107;-72
2023/09/06 00:09:32;;;;;;;5.03;3.60;;;;;;;20.16;77.22;101701.63;5093595;28;20494;-71
2023/09/06 00:11:58;;;;;;;7.25;3.88;;;;;;;19.98;77.57;101699.75;5094192;28;20467;-71
2023/09/06 00:14:23;;;;;;;5.55;4.22;;;;;;;20.13;77.62;101701.06;5093540;28;20458;-71
2023/09/06 00:16:48;;;;;;;7.78;4.05;;;;;;;20.13;77.57;101710.00;5093296;28;20016;-71
2023/09/06 00:19:17;;;;;;;5.68;3.75;;;;;;;20.06;78.06;101705.28;5093520;28;20051;-72
2023/09/06 00:21:43;;;;;;;6.47;4.50;;;;;;;20.09;77.95;101702.31;5110861;28;20031;-72
2023/09/06 00:24:13;;;;;;;5.00;3.83;;;;;;;19.85;78.46;101695.41;5093609;28;20024;-72
2023/09/06 00:26:39;;;;;;;5.72;3.72;;;;;;;20.03;77.92;101703.75;5111564;28;20070;-71
2023/09/06 00:29:07;;;;;;;8.50;3.90;;;;;;;19.96;77.99;101700.72;5093835;28;20032;-72
2023/09/06 00:31:34;;;;;;;4.23;3.83;;;;;;;19.79;78.00;101690.56;5096978;28;20026;-71
2023/09/06 00:33:59;;;;;;;4.90;3.80;;;;;;;19.79;78.71;101695.09;5096716;28;20058;-71
2023/09/06 00:36:28;;;;;;;7.38;4.20;;;;;;;19.94;78.61;101697.31;5096336;28;20119;-71
2023/09/06 00:38:56;;;;;;;4.43;3.63;;;;;;;19.87;78.08;101692.59;5115031;28;20047;-74
2023/09/06 00:41:24;;;;;;;6.78;4.22;;;;;;;19.80;78.77;101703.09;5115049;28;20061;-71
2023/09/06 00:43:50;;;;;;;8.63;4.07;;;;;;;19.73;79.58;101704.59;5096663;28;20034;-71
2023/09/06 00:46:16;;;;;;;5.25;3.83;;;;;;;19.73;79.64;101701.91;5097574;28;20027;-71
2023/09/06 00:48:41;;;;;;;4.72;4.32;;;;;;;19.63;79.40;101698.28;5114427;28;20024;-71
2023/09/06 00:51:07;;;;;;;4.85;4.07;;;;;;;19.60;80.24;101704.81;5114383;28;20072;-71
2023/09/06 00:53:34;;;;;;;6.72;3.78;;;;;;;19.52;79.92;101713.56;5114956;28;20042;-71
2023/09/06 00:56:02;;;;;;;5.57;4.40;;;;;;;19.51;80.88;101709.16;5114877;28;20027;-71
2023/09/06 00:58:29;;;;;;;5.20;3.97;;;;;;;19.62;79.06;101694.75;5114636;28;20034;-71
2023/09/06 01:00:55;;;;;;;7.30;4.10;;;;;;;19.64;79.24;101708.09;5114535;28;20098;-71
2023/09/06 01:03:20;;;;;;;8.52;4.20;;;;;;;19.67;78.76;101702.44;5109727;27;20851;-71
2023/09/06 01:05:57;;;;;;;7.22;3.83;;;;;;;19.58;80.05;101712.16;5134748;27;20480;-71
2023/09/06 01:08:28;;;;;;;10.10;4.32;;;;;;;19.72;78.76;101716.41;5094174;28;20032;-71
2023/09/06 01:10:53;;;;;;;4.95;4.38;;;;;;;19.51;79.78;101711.00;5094118;28;20024;-71
2023/09/06 01:13:20;;;;;;;10.52;4.45;;;;;;;19.67;78.04;101707.84;5094049;28;20112;-72
2023/09/06 01:15:51;;;;;;;8.25;4.85;;;;;;;19.67;78.35;101705.16;5093798;28;20147;-71
2023/09/06 01:18:17;;;;;;;6.70;4.78;;;;;;;19.77;77.38;101703.38;5114402;28;20423;-71
2023/09/06 01:20:52;;;;;;;5.88;4.45;;;;;;;19.61;79.38;101705.66;5096350;28;20035;-71
2023/09/06 01:23:34;;;;;;;7.85;4.60;;;;;;;19.67;77.85;101707.84;5114608;28;20054;-71
2023/09/06 01:25:59;;;;;;;6.50;4.80;;;;;;;19.58;79.48;101697.81;5096270;28;20027;-71
2023/09/06 01:28:27;;;;;;;9.13;4.50;;;;;;;19.51;79.29;101706.47;5114265;28;20024;-71
2023/09/06 01:30:54;;;;;;;6.10;4.47;;;;;;;19.55;80.05;101712.44;5095864;28;20102;-71
2023/09/06 01:33:24;;;;;;;5.35;4.20;;;;;;;19.42;80.77;101712.66;5114078;28;20478;-71
2023/09/06 01:35:51;;;;;;;8.15;4.72;;;;;;;19.58;79.14;101706.78;5113976;27;20025;-71
2023/09/06 01:38:16;;;;;;;5.15;4.03;;;;;;;19.52;79.92;101713.56;5113979;28;20031;-71
2023/09/06 01:40:42;;;;;;;6.07;3.92;;;;;;;19.44;80.28;101724.19;5095160;28;20020;-71
2023/09/06 01:43:08;;;;;;;9.13;4.55;;;;;;;19.36;79.99;101725.84;5113477;28;20095;-71
2023/09/06 01:45:36;;;;;;;10.48;4.65;;;;;;;19.30;80.99;101724.53;5095432;28;20110;-71
2023/09/06 01:48:04;;;;;;;7.38;4.57;;;;;;;19.35;81.10;101721.41;5113609;28;20028;-71
2023/09/06 01:50:30;;;;;;;7.38;5.05;;;;;;;19.20;82.05;101721.75;5094418;28;20103;-72
2023/09/06 01:52:55;;;;;;;5.07;4.63;;;;;;;19.30;81.24;101721.81;5102507;27;20538;-71
2023/09/06 01:55:21;;;;;;;6.10;4.47;;;;;;;19.25;81.36;101729.44;5113951;28;20027;-71
2023/09/06 01:57:47;;;;;;;6.75;4.78;;;;;;;19.24;81.10;101722.34;5113459;28;20157;-71
2023/09/06 02:00:34;;;;;;;7.70;4.68;;;;;;;19.09;82.01;101710.16;5095323;28;20059;-71
2023/09/06 02:03:00;;;;;;;7.22;5.18;;;;;;;19.17;82.31;101715.75;5082707;28;20119;-71
2023/09/06 02:05:25;;;;;;;7.10;4.63;;;;;;;19.06;82.58;101714.00;5092758;28;20103;-71
2023/09/06 02:07:51;;;;;;;7.45;5.03;;;;;;;19.07;82.12;101729.19;5109621;28;20027;-71
2023/09/06 02:10:16;;;;;;;7.28;4.78;;;;;;;19.06;82.62;101724.78;5095592;28;20038;-71
2023/09/06 02:12:42;;;;;;;5.40;4.78;;;;;;;19.14;82.36;101722.25;5113426;28;20084;-71
2023/09/06 02:15:08;;;;;;;7.60;4.93;;;;;;;18.93;83.49;101711.47;5113129;28;20062;-71
2023/09/06 02:17:35;;;;;;;8.32;4.53;;;;;;;19.01;82.84;101717.06;5113137;28;20032;-71
2023/09/06 02:20:12;;;;;;;8.10;5.10;;;;;;;18.97;82.79;101720.16;5109227;28;20028;-71
2023/09/06 02:22:42;;;;;;;8.52;4.57;;;;;;;18.93;83.08;101713.31;5093014;28;20379;-71
2023/09/06 02:25:09;;;;;;;6.45;5.13;;;;;;;18.80;83.13;101726.97;5092777;28;20433;-71
2023/09/06 02:27:35;;;;;;;6.20;4.97;;;;;;;18.83;83.63;101724.88;5109074;28;20100;-71
2023/09/06 02:30:05;;;;;;;6.80;4.88;;;;;;;18.79;83.43;101715.31;5074271;28;20066;-71
2023/09/06 02:32:31;;;;;;;10.90;5.90;;;;;;;18.77;83.96;101719.16;5074768;28;20034;-71
2023/09/06 02:34:57;;;;;;;9.45;4.88;;;;;;;18.82;84.00;101716.91;5091939;28;20028;-71
2023/09/06 02:37:23;;;;;;;5.68;4.75;;;;;;;18.83;84.08;101730.28;5092545;28;20574;-71
2023/09/06 02:39:48;;;;;;;8.25;5.00;;;;;;;18.83;83.59;101732.13;5074249;28;20558;-71
2023/09/06 02:42:13;;;;;;;7.97;5.20;;;;;;;18.88;82.24;101726.31;5092245;28;20039;-71
2023/09/06 02:44:39;;;;;;;7.13;5.18;;;;;;;18.83;83.11;101730.28;5101295;27;20016;-71
2023/09/06 02:47:09;;;;;;;9.55;5.05;;;;;;;18.84;83.36;101728.44;5112646;28;20436;-71
2023/09/06 02:49:34;;;;;;;7.60;4.88;;;;;;;18.77;83.39;101730.78;5093626;28;20073;-71
2023/09/06 02:52:00;;;;;;;10.38;5.00;;;;;;;18.75;83.83;101721.13;5112532;28;20055;-71
2023/09/06 02:54:29;;;;;;;5.47;4.97;;;;;;;18.70;83.98;101734.06;5111575;28;20027;-71
2023/09/06 02:56:57;;;;;;;9.60;5.32;;;;;;;18.67;83.88;101729.78;5112437;28;20062;-71
2023/09/06 02:59:23;;;;;;;8.38;5.30;;;;;;;18.65;84.06;101725.50;5112269;28;20424;-72
2023/09/06 03:01:50;;;;;;;6.80;5.18;;;;;;;18.53;84.56;101730.97;5112853;27;20015;-71
2023/09/06 03:04:16;;;;;;;7.05;5.15;;;;;;;18.62;83.89;101715.88;5112264;28;20489;-71
2023/09/06 03:06:43;;;;;;;5.28;4.78;;;;;;;18.57;84.15;101737.78;5111847;28;20098;-71
2023/09/06 03:09:10;;;;;;;5.43;4.95;;;;;;;18.51;85.17;101729.38;5112193;28;20201;-71
2023/09/06 03:11:38;;;;;;;5.82;5.20;;;;;;;18.48;85.10;101729.63;5112227;28;20034;-71
2023/09/06 03:14:05;;;;;;;5.78;5.10;;;;;;;18.43;84.98;101723.75;5112062;28;20028;-71
2023/09/06 03:16:38;;;;;;;7.55;5.00;;;;;;;18.36;85.57;101726.97;5112276;28;20098;-71
2023/09/06 03:19:13;;;;;;;7.70;5.10;;;;;;;18.43;85.43;101730.00;5112779;28;20020;-71
2023/09/06 03:21:39;;;;;;;6.00;5.03;;;;;;;18.43;84.89;101726.44;5111836;28;20023;-71
2023/09/06 03:24:11;;;;;;;5.25;4.65;;;;;;;18.30;85.53;101737.38;5112203;28;20076;-71
2023/09/06 03:26:43;;;;;;;7.30;4.90;;;;;;;18.25;86.37;101735.06;5112185;28;20024;-71
2023/09/06 03:29:10;;;;;;;9.32;4.95;;;;;;;18.24;86.24;101733.34;5111739;28;20020;-71
2023/09/06 03:31:42;;;;;;;6.63;5.03;;;;;;;18.26;86.00;101742.13;5112127;28;20103;-71
2023/09/06 03:34:13;;;;;;;8.23;5.05;;;;;;;18.39;85.42;101740.16;5093858;28;20026;-71
2023/09/06 03:36:40;;;;;;;6.50;4.88;;;;;;;18.32;85.37;101736.28;5093762;28;20050;-71
2023/09/06 03:39:13;;;;;;;6.30;5.55;;;;;;;18.34;85.76;101741.53;5111998;28;20023;-71
2023/09/06 03:41:46;;;;;;;7.85;5.35;;;;;;;18.26;86.18;101741.28;5111668;28;20023;-71
2023/09/06 03:44:12;;;;;;;7.05;4.53;;;;;;;18.24;86.28;101744.13;5093692;28;20026;-71
2023/09/06 03:46:38;;;;;;;7.07;4.80;;;;;;;18.21;86.46;101740.81;5093730;28;20024;-71
2023/09/06 03:49:08;;;;;;;5.82;5.07;;;;;;;18.18;86.29;101741.94;5111914;28;20028;-71
2023/09/06 03:51:34;;;;;;;5.22;4.72;;;;;;;18.21;86.56;101739.00;5111530;28;20521;-71
2023/09/06 03:54:05;;;;;;;8.27;5.07;;;;;;;18.12;86.88;101737.91;5112699;28;20023;-71
2023/09/06 03:56:31;;;;;;;7.03;4.47;;;;;;;18.11;86.94;101743.38;5093890;28;20028;-71
2023/09/06 03:59:00;;;;;;;6.47;4.75;;;;;;;18.11;86.90;101749.63;5111698;28;20487;-71
2023/09/06 04:01:28;;;;;;;6.85;4.82;;;;;;;17.96;87.58;101744.63;5111852;28;20027;-71
2023/09/06 04:03:54;;;;;;;5.30;4.80;;;;;;;18.00;87.34;101744.28;5111853;28;20107;-71
2023/09/06 04:06:19;;;;;;;6.95;4.80;;;;;;;18.02;87.03;101750.38;5115064;28;20098;-71
2023/09/06 04:08:45;;;;;;;5.75;4.65;;;;;;;18.04;86.88;101758.34;5116091;27;20069;-71
2023/09/06 04:11:13;;;;;;;6.47;4.80;;;;;;;18.01;87.16;101750.50;5115542;28;20089;-71
2023/09/06 04:13:39;;;;;;;6.88;5.03;;;;;;;17.79;87.88;101751.34;5115484;28;20024;-71
2023/09/06 04:16:08;;;;;;;5.88;4.35;;;;;;;17.84;87.95;101744.63;5115471;28;20389;-71
2023/09/06 04:18:34;;;;;;;8.38;4.85;;;;;;;17.78;88.05;101738.88;5097305;28;20037;-71
2023/09/06 04:21:00;;;;;;;5.95;4.35;;;;;;;17.80;88.00;101750.38;5096709;28;20413;-71
2023/09/06 04:23:25;;;;;;;5.68;4.78;;;;;;;17.70;88.39;101744.81;5097231;28;20041;-71
2023/09/06 04:25:51;;;;;;;7.35;4.88;;;;;;;17.75;88.38;101749.84;5116002;27;20024;-71
2023/09/06 04:28:22;;;;;;;7.30;4.93;;;;;;;17.77;88.11;101748.75;5115169;28;20023;-71
2023/09/06 04:30:48;;;;;;;5.45;4.25;;;;;;;17.76;88.17;101754.25;5115222;28;20024;-71
2023/09/06 04:33:13;;;;;;;8.13;5.15;;;;;;;17.69;88.29;101753.88;5115512;28;20072;-71
2023/09/06 04:35:44;;;;;;;5.32;4.82;;;;;;;17.58;88.86;101756.56;5097456;28;20047;-70
2023/09/06 04:38:14;;;;;;;5.45;4.78;;;;;;;17.57;89.45;101762.91;5115213;28;20044;-72
2023/09/06 04:40:44;;;;;;;8.90;4.95;;;;;;;17.51;89.29;101758.03;5096684;28;20130;-71
2023/09/06 04:43:10;;;;;;;9.68;5.13;;;;;;;17.59;89.10;101756.44;5118873;27;20027;-71
2023/09/06 04:45:39;;;;;;;7.10;4.65;;;;;;;17.67;88.72;101755.81;5117311;27;20061;-71
2023/09/06 04:48:09;;;;;;;7.95;5.50;;;;;;;17.62;89.11;101764.28;5135421;27;20119;-71
2023/09/06 04:50:41;;;;;;;6.15;5.45;;;;;;;17.51;89.42;101758.88;5134999;27;20038;-71
2023/09/06 04:53:09;;;;;;;13.85;5.55;;;;;;;17.33;90.09;101755.78;5135486;27;20027;-70
2023/09/06 04:55:36;;;;;;;10.10;5.18;;;;;;;17.52;89.79;101774.03;5135041;27;20038;-71
2023/09/06 04:58:02;;;;;;;6.78;5.50;;;;;;;17.54;89.78;101774.78;5117211;27;20378;-71
2023/09/06 05:00:33;;;;;;;7.03;5.78;;;;;;;17.45;89.98;101770.97;5134391;27;20030;-71
2023/09/06 05:03:00;;;;;;;7.35;5.38;;;;;;;17.51;90.03;101771.47;5135259;27;20130;-71
2023/09/06 05:05:26;;;;;;;7.40;5.38;;;;;;;17.45;90.29;101773.66;5134797;27;20384;-70
2023/09/06 05:07:51;;;;;;;8.27;5.53;;;;;;;17.52;90.68;101774.03;5117891;27;20015;-70
2023/09/06 05:10:17;;;;;;;9.02;6.15;;;;;;;17.48;90.73;101780.63;5114155;28;20424;-71
2023/09/06 05:12:43;;;;;;;7.70;5.80;;;;;;;17.30;91.31;101782.91;5114614;28;20027;-71
2023/09/06 05:15:10;;;;;;;8.40;6.05;;;;;;;17.47;91.02;101782.47;5114101;28;20019;-71
2023/09/06 05:17:35;;;;;;;7.68;6.80;;;;;;;17.34;92.06;101789.75;5113594;27;20023;-71
2023/09/06 05:20:29;;;;;;;8.60;6.32;;;;;;;17.46;91.24;101793.31;5113941;28;20030;-71
2023/09/06 05:23:03;;;;;;;13.98;6.22;;;;;;;17.29;91.77;101789.22;5096141;28;20075;-71
2023/09/06 05:25:32;;;;;;;6.75;5.55;;;;;;;17.43;91.25;101791.72;5114263;28;20028;-70
2023/09/06 05:28:03;;;;;;;7.15;6.45;;;;;;;17.24;92.23;101800.34;5114291;28;20024;-71
2023/09/06 05:30:28;;;;;;;8.55;6.47;;;;;;;17.38;91.68;101798.44;5114758;28;20422;-71
2023/09/06 05:32:55;;;;;;;8.90;6.57;;;;;;;17.34;92.17;101805.88;5114240;28;20110;-71
2023/09/06 05:35:23;;;;;;;13.23;7.00;;;;;;;17.42;91.93;101805.31;5114524;27;20072;-71
2023/09/06 05:37:49;;;;;;;12.87;6.90;;;;;;;17.45;91.86;101802.38;5113990;28;20097;-70
2023/09/06 05:40:16;;;;;;;12.15;6.93;;;;;;;17.46;91.85;101796.88;5113694;28;20035;-70
2023/09/06 05:42:41;;;;;;;9.43;6.72;;;;;;;17.48;91.44;101802.16;5114021;28;20024;-70
2023/09/06 05:45:11;;;;;;;9.18;7.25;;;;;;;17.48;92.02;101799.47;5078699;28;20019;-70
2023/09/06 05:47:39;;;;;;;12.70;7.28;;;;;;;17.39;92.71;101801.03;5078939;28;20291;-70
2023/09/06 05:50:08;;;;;;;11.95;7.10;;;;;;;17.52;92.76;101808.13;5112136;27;20031;-70
2023/09/06 05:52:34;;;;;;;10.98;7.55;;;;;;;17.44;93.62;101809.59;5096011;28;20034;-70
2023/09/06 05:55:05;;;;;;;10.07;7.78;;;;;;;17.36;94.21;101813.84;5113219;28;20027;-70
2023/09/06 05:57:32;;;;;;;14.27;7.95;;;;;;;17.38;94.43;101811.88;5113963;28;20031;-71
2023/09/06 05:59:57;;;;;;;13.15;7.70;;;;;;;17.46;94.50;101815.69;5095188;28;20027;-71
2023/09/06 06:02:24;;;;;;;10.10;8.05;;;;;;;17.49;94.63;101812.78;5113630;28;20036;-71
2023/09/06 06:04:50;;;;;;;13.95;7.90;;;;;;;17.51;94.38;101796.53;5094605;28;20532;-71
2023/09/06 06:07:16;;;;;;;9.25;7.13;;;;;;;17.63;94.41;101802.78;5113358;28;20028;-71
2023/09/06 06:09:43;;;;;;;12.98;7.28;;;;;;;17.58;94.57;101807.66;5111381;27;21165;-71
2023/09/06 06:12:10;;;;;;;9.70;7.32;;;;;;;17.56;94.90;101813.19;5113174;28;20019;-71
2023/09/06 06:14:36;;;;;;;13.60;7.60;;;;;;;17.64;94.78;101808.03;5094896;28;20020;-71
2023/09/06 06:17:04;;;;;;;10.88;7.80;;;;;;;17.68;95.06;101811.38;5113302;28;20024;-71
2023/09/06 06:19:29;;;;;;;13.45;8.15;;;;;;;17.67;94.50;101807.78;5113060;28;20103;-70
2023/09/06 06:21:54;;;;;;;12.55;7.97;;;;;;;17.66;94.82;101808.78;5112795;28;20039;-71
2023/09/06 06:24:20;;;;;;;14.18;7.72;;;;;;;17.74;94.68;101812.72;5108947;28;20095;-71
2023/09/06 06:26:45;;;;;;;14.30;8.70;;;;;;;17.75;95.07;101814.44;5103655;28;20127;-72
2023/09/06 06:29:11;;;;;;;29.50;8.85;;;;;;;17.91;94.29;101825.72;5071776;28;20394;-72
2023/09/06 06:31:36;;;;;;;11.35;8.48;;;;;;;17.88;94.68;101828.66;5089843;28;20382;-76
2023/09/06 06:34:02;;;;;;;15.10;8.25;;;;;;;17.97;94.00;101819.91;5084093;28;20024;-71
2023/09/06 06:36:27;;;;;;;11.18;7.60;;;;;;;18.08;93.45;101817.19;5092978;28;20456;-68
2023/09/06 06:38:53;;;;;;;11.30;7.72;;;;;;;18.15;94.19;101825.66;5092469;28;20105;-69
2023/09/06 06:41:22;;;;;;;9.52;7.05;;;;;;;18.28;93.67;101828.22;5122770;27;20016;-70
2023/09/06 06:43:47;;;;;;;;;;;;;;;18.45;92.53;101835.78;5113673;28;20485;-69
2023/09/06 06:46:35;;;;;;;8.10;7.13;;;;;;;18.56;92.04;101832.22;5097802;28;19908;-72
2023/09/06 06:49:04;;;;;;;9.93;6.78;;;;;;;18.66;91.40;101835.88;5092411;28;20060;-70
2023/09/06 06:51:35;;;;;;;12.38;7.30;;;;;;;18.87;88.15;101829.75;5091781;28;20118;-71
2023/09/06 06:54:02;;;;;;;8.02;6.60;;;;;;;18.97;89.26;101846.88;5092864;28;20019;-73
2023/09/06 06:56:30;;;;;;;7.45;6.20;;;;;;;19.15;88.67;101841.78;5094615;28;20039;-73
2023/09/06 06:58:55;;;;;;;6.85;6.13;;;;;;;19.26;86.85;101837.19;5113103;27;20031;-65
2023/09/06 07:01:24;;;;;;;8.93;6.32;;;;;;;19.14;89.34;101837.38;5112484;28;20382;-69
2023/09/06 07:03:50;;;;;;;7.95;6.22;;;;;;;19.37;87.37;101852.50;5112716;28;20107;-67
2023/09/06 07:06:15;;;;;;;9.63;5.65;;;;;;;19.39;86.42;101850.53;5112071;28;20161;-67
2023/09/06 07:08:41;;;;;;;7.95;6.10;;;;;;;19.43;87.11;101849.28;5112519;28;20019;-70
2023/09/06 07:11:09;;;;;;;8.52;5.85;;;;;;;19.61;85.24;101852.25;5090158;28;20483;-70
2023/09/06 07:13:37;;;;;;;7.47;6.00;;;;;;;19.63;86.60;101858.38;5105581;28;20111;-70
2023/09/06 07:16:03;;;;;;;8.40;6.28;;;;;;;19.65;83.25;101848.34;5105286;27;20027;-69
2023/09/06 07:18:29;;;;;;;8.50;5.90;;;;;;;19.87;81.74;101849.19;5100700;28;20634;-69
2023/09/06 07:20:54;;;;;;;5.35;4.75;;;;;;;19.93;83.94;101840.56;5088064;28;20110;-71
2023/09/06 07:23:20;;;;;;;9.90;5.68;;;;;;;20.00;83.53;101849.84;5092436;28;20682;-69
2023/09/06 07:25:49;;;;;;;6.85;5.50;;;;;;;20.19;81.02;101847.22;5086435;28;20035;-71
2023/09/06 07:28:14;;;;;;;8.88;5.00;;;;;;;20.28;79.76;101852.81;5100356;28;20028;-70
2023/09/06 07:30:42;;;;;;;9.27;5.10;;;;;;;20.22;80.23;101831.75;5102831;28;20031;-66
2023/09/06 07:33:10;;;;;;;8.70;4.43;;;;;;;20.33;81.46;101858.69;5089742;28;20027;-70
2023/09/06 07:35:35;;;;;;;8.53;4.57;;;;;;;20.44;80.55;101847.75;5105063;28;20045;-65
2023/09/06 07:38:01;;;;;;;7.70;5.03;;;;;;;20.46;78.23;101839.53;5108451;28;20079;-65
2023/09/06 07:40:26;;;;;;;14.70;4.90;;;;;;;20.46;80.53;101853.88;5092775;28;20038;-66
2023/09/06 07:42:53;;;;;;;9.52;5.00;;;;;;;20.63;79.11;101858.66;5095833;28;20031;-66
2023/09/06 07:45:18;;;;;;;7.45;4.20;;;;;;;20.59;80.30;101856.41;5100803;27;20074;-66
2023/09/06 07:47:46;;;;;;;8.10;4.68;;;;;;;20.72;76.26;101859.69;5108656;28;20474;-66
2023/09/06 07:50:12;;;;;;;8.75;4.55;;;;;;;20.88;74.97;101861.84;5086500;28;20027;-67
2023/09/06 07:52:37;;;;;;;9.52;4.68;;;;;;;20.83;78.44;101856.03;5090001;28;20020;-68
2023/09/06 07:55:07;;;;;;;13.45;5.10;;;;;;;21.02;75.08;101861.47;5089538;28;20081;-68
2023/09/06 07:57:33;;;;;;;13.35;4.43;;;;;;;21.08;75.92;101863.59;5088328;28;20063;-68
2023/09/06 07:59:58;;;;;;;12.73;4.72;;;;;;;21.02;79.25;101858.75;5108930;28;20059;-68
2023/09/06 08:02:26;;;;;;;10.98;5.35;;;;;;;21.30;76.05;101856.22;5094996;28;20042;-68
2023/09/06 08:04:52;;;;;;;6.55;5.07;;;;;;;21.32;77.32;101860.50;5105050;28;20035;-68
2023/09/06 08:07:18;;;;;;;9.10;4.93;;;;;;;21.51;75.88;101864.25;5113781;28;20027;-68
2023/09/06 08:09:43;;;;;;;6.88;4.88;;;;;;;21.57;75.52;101868.22;5097339;28;20084;-68
2023/09/06 08:12:09;;;;;;;8.07;5.13;;;;;;;21.79;73.88;101865.19;5115218;28;20491;-68
2023/09/06 08:14:34;;;;;;;6.38;4.80;;;;;;;21.71;76.55;101865.09;5114861;28;20031;-68
2023/09/06 08:17:02;;;;;;;7.93;4.57;;;;;;;21.83;76.18;101868.47;5115667;28;20386;-68
2023/09/06 08:19:27;;;;;;;7.30;4.22;;;;;;;21.89;75.23;101876.88;5115392;28;20015;-68
2023/09/06 08:21:53;;;;;;;10.15;4.32;;;;;;;21.98;72.70;101858.88;5115243;28;20046;-68
2023/09/06 08:24:18;;;;;;;7.32;4.63;;;;;;;22.28;69.96;101879.50;5097044;28;20034;-68
2023/09/06 08:26:48;;;;;;;7.68;4.68;;;;;;;22.31;71.06;101871.06;5093139;28;20497;-69
2023/09/06 08:29:13;;;;;;;7.38;4.22;;;;;;;22.51;68.28;101866.44;5114942;28;20031;-69
2023/09/06 08:31:39;;;;;;;10.05;4.57;;;;;;;22.64;66.79;101860.66;5112322;28;20024;-68
2023/09/06 08:34:04;;;;;;;7.43;4.43;;;;;;;22.81;68.23;101875.25;5096407;28;20032;-68
2023/09/06 08:36:30;;;;;;;5.20;3.95;;;;;;;22.86;67.98;101870.25;5084249;28;20040;-68
2023/09/06 08:38:55;;;;;;;8.23;4.28;;;;;;;22.92;69.95;101861.50;5099314;28;20490;-69
2023/09/06 08:41:21;;;;;;;8.88;4.78;;;;;;;23.16;65.75;101868.22;5112505;27;20027;-69
2023/09/06 08:43:47;;;;;;;7.60;4.75;;;;;;;23.19;68.83;101860.63;5094689;28;20039;-69
2023/09/06 08:46:24;;;;;;;6.53;3.83;;;;;;;23.27;70.43;101860.69;5113822;28;20098;-69
2023/09/06 08:48:52;;;;;;;6.43;4.28;;;;;;;23.36;68.20;101856.19;5113397;28;20375;-69
2023/09/06 08:51:20;;;;;;;5.80;3.90;;;;;;;23.54;68.68;101861.63;5112837;28;20016;-69
2023/09/06 08:53:47;;;;;;;9.68;3.92;;;;;;;23.69;68.82;101873.63;5113593;28;20024;-70
2023/09/06 08:56:15;;;;;;;4.97;3.80;;;;;;;23.83;67.96;101868.66;5113625;28;20034;-68
2023/09/06 08:58:41;;;;;;;6.57;3.70;;;;;;;23.73;68.29;101858.72;5115011;28;20020;-68
2023/09/06 09:01:06;;;;;;;5.72;3.50;;;;;;;24.02;64.56;101871.16;5096182;28;20076;-68
2023/09/06 09:03:32;;;;;;;6.47;3.20;;;;;;;24.06;64.91;101867.13;5096396;28;20019;-68
2023/09/06 09:05:59;;;;;;;6.05;3.28;;;;;;;24.14;63.87;101872.59;5114303;28;20053;-68
2023/09/06 09:08:28;;;;;;;9.00;3.40;;;;;;;24.26;63.90;101874.00;5096439;28;20020;-68
2023/09/06 09:11:15;;;;;;;9.52;3.20;;;;;;;24.30;64.77;101876.44;5096077;28;20028;-68
2023/09/06 09:13:41;;;;;;;4.97;3.00;;;;;;;24.43;63.50;101876.88;5114317;28;20102;-68
2023/09/06 09:16:17;;;;;;;6.43;3.60;;;;;;;24.42;62.88;101866.97;5129907;27;20019;-68
2023/09/06 09:18:44;;;;;;;4.70;3.28;;;;;;;24.54;63.08;101873.00;5114509;28;20068;-68
2023/09/06 09:21:15;;;;;;;5.32;3.42;;;;;;;24.47;61.72;101870.06;5113800;28;20043;-68
2023/09/06 09:23:47;;;;;;;7.82;4.03;;;;;;;24.47;61.77;101873.69;5114248;28;20445;-68
2023/09/06 09:26:13;;;;;;;7.22;3.33;;;;;;;24.69;62.83;101874.94;5114251;28;20461;-68
2023/09/06 09:28:41;;;;;;;5.82;3.80;;;;;;;24.66;65.77;101874.44;5114205;28;20034;-68
2023/09/06 09:31:15;;;;;;;5.85;3.30;;;;;;;24.60;66.32;101853.31;5095580;28;20044;-68
2023/09/06 09:33:44;;;;;;;8.65;3.22;;;;;;;24.78;63.90;101869.53;5114029;28;20474;-68
2023/09/06 09:36:14;;;;;;;5.00;3.35;;;;;;;24.79;62.38;101866.63;5113275;28;20077;-67
2023/09/06 09:38:48;;;;;;;4.95;3.40;;;;;;;24.98;63.44;101868.22;5095862;28;20028;-68
2023/09/06 09:41:14;;;;;;;3.90;3.22;;;;;;;25.08;63.29;101862.63;5113990;28;20041;-68
2023/09/06 09:43:39;;;;;;;5.90;2.88;;;;;;;25.16;62.84;101865.41;5095711;28;20027;-68
2023/09/06 09:46:06;;;;;;;5.03;3.08;;;;;;;25.14;61.82;101862.84;5095296;28;20034;-68
2023/09/06 09:48:34;;;;;;;5.03;3.13;;;;;;;25.21;60.66;101860.31;5113918;28;20103;-68
2023/09/06 09:51:04;;;;;;;5.32;3.08;;;;;;;25.33;61.85;101858.97;5113484;28;20023;-68
2023/09/06 09:53:32;;;;;;;4.97;3.25;;;;;;;25.35;60.07;101859.66;5113850;28;20019;-67
2023/09/06 09:56:04;;;;;;;6.07;3.33;;;;;;;25.57;59.43;101863.56;5095881;28;20041;-68
2023/09/06 09:58:34;;;;;;;7.35;3.10;;;;;;;25.44;59.08;101859.63;5095836;28;20764;-68
2023/09/06 10:01:00;;;;;;;3.30;3.00;;;;;;;25.65;58.19;101848.22;5106440;28;20027;-68
2023/09/06 10:03:27;;;;;;;7.68;3.38;;;;;;;25.78;61.05;101854.84;5085730;28;20498;-68
2023/09/06 10:05:53;;;;;;;7.13;3.22;;;;;;;25.87;60.16;101858.44;5112317;27;20085;-68
2023/09/06 10:08:20;;;;;;;8.35;3.30;;;;;;;26.00;58.46;101858.78;5112085;28;20028;-68
2023/09/06 10:10:46;;;;;;;4.45;3.58;;;;;;;26.09;57.36;101856.00;5110445;27;20053;-68
2023/09/06 10:13:14;;;;;;;5.10;3.25;;;;;;;25.97;57.30;101860.97;5112077;28;20471;-68
2023/09/06 10:15:41;;;;;;;6.30;3.50;;;;;;;26.01;58.47;101857.75;5091118;28;20023;-68
2023/09/06 10:18:06;;;;;;;6.88;3.95;;;;;;;26.02;58.34;101850.41;5084984;28;20482;-68
2023/09/06 10:20:34;;;;;;;8.38;3.92;;;;;;;26.12;57.90;101853.81;5090693;28;20026;-68
2023/09/06 10:23:00;;;;;;;6.03;3.23;;;;;;;26.25;59.13;101851.38;5084512;28;20054;-68
2023/09/06 10:25:26;;;;;;;5.90;3.70;;;;;;;26.31;57.55;101846.25;5103053;28;20024;-68
2023/09/06 10:27:54;;;;;;;5.65;3.38;;;;;;;26.47;56.00;101849.78;5103396;28;20069;-68
2023/09/06 10:30:51;;;;;;;5.07;3.45;;;;;;;26.51;57.15;101850.28;5106621;28;20023;-68
2023/09/06 10:33:41;;;;;;;9.43;3.58;;;;;;;26.53;55.65;101853.69;5094773;28;20085;-68
2023/09/06 10:36:12;;;;;;;4.35;3.53;;;;;;;26.55;52.78;101851.63;5105403;28;20516;-67
2023/09/06 10:38:57;;;;;;;8.55;3.45;;;;;;;26.56;55.32;101852.47;5077626;28;20046;-68
2023/09/06 10:41:24;;;;;;;4.97;3.30;;;;;;;26.54;54.69;101832.72;5100560;27;20065;-68
2023/09/06 10:44:00;;;;;;;5.88;3.03;;;;;;;26.69;54.41;101850.88;5074727;28;20024;-68
2023/09/06 10:46:37;;;;;;;5.82;3.22;;;;;;;26.85;52.86;101838.16;5081681;28;20035;-68
2023/09/06 10:49:25;;;;;;;5.78;3.33;;;;;;;26.84;54.27;101842.78;5104975;28;20055;-67
2023/09/06 10:51:57;;;;;;;;;;;;;;;26.84;54.94;101845.50;5075122;28;20422;-67
2023/09/06 10:54:34;;;;;;;6.60;3.70;;;;;;;26.90;51.43;101833.88;5093267;28;19916;-68
2023/09/06 10:57:05;;;;;;;6.05;3.38;;;;;;;26.93;53.80;101829.94;5104538;27;20027;-68
2023/09/06 10:59:31;;;;;;;4.93;3.30;;;;;;;27.05;53.24;101824.91;5116532;27;20034;-68
2023/09/06 11:02:14;;;;;;;8.43;4.53;;;;;;;27.10;52.69;101836.13;5101846;27;20032;-68
2023/09/06 11:04:41;;;;;;;7.95;3.90;;;;;;;27.14;52.06;101827.38;5100440;28;20486;-68
2023/09/06 11:07:10;;;;;;;6.82;3.65;;;;;;;27.30;51.89;101837.38;5100346;28;20039;-68
2023/09/06 11:09:49;;;;;;;;;;;;;;;27.27;52.39;101835.03;5098715;28;20073;-62
2023/09/06 11:12:14;;;;;;;5.93;3.47;;;;;;;27.29;49.96;101837.56;5107290;28;19916;-65
2023/09/06 11:14:41;;;;;;;8.48;3.60;;;;;;;27.37;50.47;101834.75;5084747;28;20035;-65
2023/09/06 11:17:07;;;;;;;5.00;3.28;;;;;;;27.42;51.22;101831.50;5101261;27;20111;-63
2023/09/06 11:19:35;;;;;;;10.18;3.30;;;;;;;27.37;49.51;101827.41;5094084;28;20460;-62
2023/09/06 11:22:08;;;;;;;4.88;3.35;;;;;;;27.53;49.49;101828.28;5113733;27;20027;-63
2023/09/06 11:24:35;;;;;;;6.50;3.60;;;;;;;27.45;49.80;101822.94;5114072;27;20020;-63
2023/09/06 11:27:21;;;;;;;7.30;3.42;;;;;;;27.61;46.04;101831.81;5102223;28;20347;-62
2023/09/06 11:30:00;;;;;;;7.15;3.30;;;;;;;27.59;46.73;101831.16;5084939;28;20028;-65